Time;durP1;ratioP1;P1;durP2;ratioP2;P2;SDS_P1;SDS_P2;PMS_P1;PMS_P2;Temp;Humidity;BMP_temperature;BMP_pressure;BME280_temperature;BME280_humidity;BME280_pressure;Samples;Min_cycle;Max_cycle;Signal;HPM_P1;HPM_P2
2020/01/12 00:02:51;;;;;;;3.47;3.17;;;;;;;18.77;40.60;101895.56;;;;-47
2020/01/12 00:05:50;;;;;;;4.04;3.35;;;;;;;18.76;40.65;101889.30;;;;-47
2020/01/12 00:08:50;;;;;;;3.54;3.24;;;;;;;18.75;40.65;101881.03;;;;-47
2020/01/12 00:11:51;;;;;;;3.82;3.45;;;;;;;18.74;40.59;101879.95;;;;-47
2020/01/12 00:14:51;;;;;;;3.48;3.18;;;;;;;18.73;40.66;101878.03;;;;-47
2020/01/12 00:17:51;;;;;;;3.92;3.52;;;;;;;18.72;40.64;101873.91;;;;-47
2020/01/12 00:20:51;;;;;;;3.53;3.23;;;;;;;18.72;40.64;101875.28;;;;-47
2020/01/12 00:23:51;;;;;;;3.50;3.20;;;;;;;18.70;40.63;101877.95;;;;-47
2020/01/12 00:26:51;;;;;;;3.77;3.24;;;;;;;18.70;40.60;101878.09;;;;-47
2020/01/12 00:29:50;;;;;;;3.54;3.24;;;;;;;18.68;40.63;101875.13;;;;-47
2020/01/12 00:32:50;;;;;;;3.78;3.38;;;;;;;18.67;40.63;101870.20;;;;-47
2020/01/12 00:35:50;;;;;;;3.59;3.29;;;;;;;18.66;40.57;101863.50;;;;-47
2020/01/12 00:38:51;;;;;;;3.57;3.27;;;;;;;18.66;40.62;101863.31;;;;-47
2020/01/12 00:41:51;;;;;;;3.48;3.18;;;;;;;18.65;40.64;101865.38;;;;-47
2020/01/12 00:44:51;;;;;;;3.49;3.19;;;;;;;18.64;40.66;101856.11;;;;-47
2020/01/12 00:47:50;;;;;;;3.60;3.17;;;;;;;18.63;40.64;101859.36;;;;-47
2020/01/12 00:50:50;;;;;;;3.45;3.15;;;;;;;18.62;40.66;101856.56;;;;-47
2020/01/12 00:53:50;;;;;;;3.39;3.09;;;;;;;18.61;40.64;101854.39;;;;-47
2020/01/12 00:56:50;;;;;;;3.38;3.08;;;;;;;18.61;40.63;101861.67;;;;-47
2020/01/12 00:59:51;;;;;;;3.95;3.55;;;;;;;18.60;40.59;101861.55;;;;-47
2020/01/12 01:02:51;;;;;;;3.75;3.29;;;;;;;18.59;40.61;101861.53;;;;-47
2020/01/12 01:05:51;;;;;;;3.45;3.15;;;;;;;18.58;40.66;101860.85;;;;-47
2020/01/12 01:08:50;;;;;;;3.57;3.27;;;;;;;18.57;40.60;101865.30;;;;-47
2020/01/12 01:11:50;;;;;;;3.69;3.19;;;;;;;18.56;40.62;101855.92;;;;-47
2020/01/12 01:14:50;;;;;;;3.54;3.24;;;;;;;18.56;40.57;101854.24;;;;-47
2020/01/12 01:17:51;;;;;;;3.63;3.15;;;;;;;18.54;40.61;101854.05;;;;-46
2020/01/12 01:20:50;;;;;;;3.71;3.36;;;;;;;18.54;40.61;101852.98;;;;-46
2020/01/12 01:23:51;;;;;;;3.77;3.47;;;;;;;18.53;40.62;101849.29;;;;-47
2020/01/12 01:26:50;;;;;;;3.79;3.41;;;;;;;18.53;40.60;101842.48;;;;-47
2020/01/12 01:29:51;;;;;;;3.61;3.31;;;;;;;18.52;40.63;101837.06;;;;-47
2020/01/12 01:32:50;;;;;;;3.60;3.30;;;;;;;18.50;40.61;101832.07;;;;-47
2020/01/12 01:35:50;;;;;;;4.01;3.52;;;;;;;18.50;40.54;101836.75;;;;-47
2020/01/12 01:38:50;;;;;;;3.96;3.25;;;;;;;18.49;40.55;101835.84;;;;-47
2020/01/12 01:41:51;;;;;;;3.70;3.40;;;;;;;18.48;40.54;101833.19;;;;-47
2020/01/12 01:44:51;;;;;;;3.83;3.49;;;;;;;18.48;40.56;101837.37;;;;-47
2020/01/12 01:47:50;;;;;;;3.41;3.11;;;;;;;18.46;40.56;101831.40;;;;-47
2020/01/12 01:50:50;;;;;;;3.62;3.32;;;;;;;18.45;40.55;101829.32;;;;-47
2020/01/12 01:53:50;;;;;;;3.44;3.13;;;;;;;18.45;40.54;101822.61;;;;-46
2020/01/12 01:56:50;;;;;;;3.66;3.36;;;;;;;18.44;40.57;101818.36;;;;-47
2020/01/12 01:59:50;;;;;;;3.65;3.35;;;;;;;18.43;40.59;101817.06;;;;-47
2020/01/12 02:02:50;;;;;;;3.65;3.35;;;;;;;18.42;40.53;101815.89;;;;-46
2020/01/12 02:05:51;;;;;;;3.54;3.24;;;;;;;18.41;40.57;101812.48;;;;-47
2020/01/12 02:08:58;;;;;;;3.59;3.29;;;;;;;18.40;40.58;101810.49;;;;-47
2020/01/12 02:13:19;;;;;;;3.82;3.46;;;;;;;18.40;40.57;101809.00;;;;-47
2020/01/12 02:15:50;;;;;;;3.67;3.35;;;;;;;18.39;40.52;101804.73;;;;-47
2020/01/12 02:18:50;;;;;;;3.75;3.45;;;;;;;18.38;40.53;101803.18;;;;-47
2020/01/12 02:21:50;;;;;;;3.69;3.39;;;;;;;18.37;40.52;101806.95;;;;-47
2020/01/12 02:24:50;;;;;;;3.45;3.15;;;;;;;18.36;40.53;101806.31;;;;-47
2020/01/12 02:27:50;;;;;;;3.41;3.11;;;;;;;18.35;40.58;101803.63;;;;-47
2020/01/12 02:30:50;;;;;;;3.79;3.41;;;;;;;18.35;40.48;101798.04;;;;-47
2020/01/12 02:33:50;;;;;;;3.83;3.46;;;;;;;18.34;40.51;101791.19;;;;-47
2020/01/12 02:36:50;;;;;;;3.73;3.41;;;;;;;18.34;40.49;101795.08;;;;-47
2020/01/12 02:39:51;;;;;;;3.82;3.41;;;;;;;18.33;40.51;101793.72;;;;-47
2020/01/12 02:42:51;;;;;;;3.65;3.34;;;;;;;18.33;40.52;101791.60;;;;-47
2020/01/12 02:45:50;;;;;;;3.65;3.35;;;;;;;18.32;40.53;101789.02;;;;-46
2020/01/12 02:48:50;;;;;;;3.93;3.53;;;;;;;18.30;40.57;101786.93;;;;-47
2020/01/12 02:51:50;;;;;;;3.65;3.31;;;;;;;18.31;40.51;101787.61;;;;-46
2020/01/12 02:54:51;;;;;;;3.65;3.35;;;;;;;18.29;40.50;101780.22;;;;-47
2020/01/12 02:57:51;;;;;;;3.92;3.48;;;;;;;18.28;40.50;101779.48;;;;-47
2020/01/12 03:00:51;;;;;;;3.75;3.37;;;;;;;18.28;40.51;101774.80;;;;-47
2020/01/12 03:03:50;;;;;;;3.67;3.32;;;;;;;18.27;40.49;101769.27;;;;-48
2020/01/12 03:06:50;;;;;;;3.58;3.28;;;;;;;18.26;40.44;101768.36;;;;-46
2020/01/12 03:09:50;;;;;;;3.45;3.15;;;;;;;18.26;40.50;101769.31;;;;-47
2020/01/12 03:12:50;;;;;;;3.47;3.17;;;;;;;18.25;40.47;101771.47;;;;-46
2020/01/12 03:15:50;;;;;;;3.51;3.21;;;;;;;18.25;40.49;101765.17;;;;-47
2020/01/12 03:18:51;;;;;;;3.70;3.35;;;;;;;18.24;40.50;101765.44;;;;-47
2020/01/12 03:21:50;;;;;;;3.44;3.14;;;;;;;18.24;40.48;101769.89;;;;-46
2020/01/12 03:24:50;;;;;;;3.76;3.35;;;;;;;18.24;40.49;101775.47;;;;-46
2020/01/12 03:27:50;;;;;;;3.99;3.35;;;;;;;18.21;40.42;101769.92;;;;-46
2020/01/12 03:30:51;;;;;;;3.48;3.17;;;;;;;18.22;40.48;101765.42;;;;-46
2020/01/12 03:33:50;;;;;;;3.79;3.34;;;;;;;18.21;40.48;101757.53;;;;-47
2020/01/12 03:36:50;;;;;;;3.57;3.25;;;;;;;18.20;40.53;101751.69;;;;-46
2020/01/12 03:39:50;;;;;;;3.53;3.23;;;;;;;18.19;40.46;101754.17;;;;-47
2020/01/12 03:42:50;;;;;;;3.91;3.51;;;;;;;18.19;40.45;101748.70;;;;-47
2020/01/12 03:45:50;;;;;;;3.67;3.30;;;;;;;18.17;40.46;101743.67;;;;-46
2020/01/12 03:48:50;;;;;;;3.51;3.21;;;;;;;18.18;40.45;101738.00;;;;-47
2020/01/12 03:51:50;;;;;;;3.49;3.19;;;;;;;18.17;40.45;101725.98;;;;-47
2020/01/12 03:54:50;;;;;;;3.51;3.21;;;;;;;18.16;40.45;101724.20;;;;-47
2020/01/12 03:57:50;;;;;;;3.27;2.97;;;;;;;18.15;40.42;101718.27;;;;-47
2020/01/12 04:00:50;;;;;;;3.45;3.15;;;;;;;18.15;40.44;101711.47;;;;-46
2020/01/12 04:03:50;;;;;;;3.53;3.23;;;;;;;18.14;40.41;101703.70;;;;-47
2020/01/12 04:06:51;;;;;;;3.46;3.14;;;;;;;18.13;40.40;101707.48;;;;-47
2020/01/12 04:09:50;;;;;;;3.75;3.25;;;;;;;18.13;40.39;101716.13;;;;-47
2020/01/12 04:12:50;;;;;;;3.19;2.95;;;;;;;18.12;40.40;101710.87;;;;-46
2020/01/12 04:15:51;;;;;;;3.21;2.91;;;;;;;18.11;40.43;101717.84;;;;-46
2020/01/12 04:18:50;;;;;;;3.47;3.17;;;;;;;18.11;40.38;101723.89;;;;-47
2020/01/12 04:21:50;;;;;;;3.49;3.19;;;;;;;18.10;40.40;101721.48;;;;-47
2020/01/12 04:24:50;;;;;;;3.34;3.04;;;;;;;18.11;40.40;101724.56;;;;-46
2020/01/12 04:27:50;;;;;;;3.34;3.04;;;;;;;18.08;40.39;101723.80;;;;-47
2020/01/12 04:30:50;;;;;;;3.30;3.00;;;;;;;18.08;40.39;101716.44;;;;-47
2020/01/12 04:33:50;;;;;;;4.45;3.08;;;;;;;18.07;40.38;101725.91;;;;-47
2020/01/12 04:36:50;;;;;;;3.17;2.87;;;;;;;18.07;40.38;101723.33;;;;-47
2020/01/12 04:39:50;;;;;;;3.63;3.31;;;;;;;18.07;40.44;101719.48;;;;-47
2020/01/12 04:42:50;;;;;;;3.23;2.93;;;;;;;18.07;40.44;101720.38;;;;-46
2020/01/12 04:45:51;;;;;;;3.37;3.07;;;;;;;18.08;40.51;101717.11;;;;-47
2020/01/12 04:48:50;;;;;;;3.28;2.98;;;;;;;18.08;40.53;101713.78;;;;-47
2020/01/12 04:51:50;;;;;;;3.21;2.92;;;;;;;18.10;40.55;101725.18;;;;-47
2020/01/12 04:54:51;;;;;;;3.33;3.03;;;;;;;18.12;40.43;101728.42;;;;-46
2020/01/12 04:57:50;;;;;;;3.45;3.13;;;;;;;18.15;40.39;101729.19;;;;-47
2020/01/12 05:00:50;;;;;;;3.24;2.94;;;;;;;18.17;40.55;101725.00;;;;-46
2020/01/12 05:03:50;;;;;;;3.07;2.77;;;;;;;18.19;40.61;101720.45;;;;-47
2020/01/12 05:06:50;;;;;;;3.10;2.80;;;;;;;18.22;40.65;101723.29;;;;-46
2020/01/12 05:09:50;;;;;;;3.21;2.91;;;;;;;18.25;40.67;101728.94;;;;-47
2020/01/12 05:12:51;;;;;;;3.32;3.02;;;;;;;18.30;40.61;101725.89;;;;-47
2020/01/12 05:15:50;;;;;;;3.21;2.93;;;;;;;18.35;40.64;101724.51;;;;-47
2020/01/12 05:18:50;;;;;;;3.13;2.83;;;;;;;18.38;40.66;101722.05;;;;-47
2020/01/12 05:21:50;;;;;;;3.19;2.89;;;;;;;18.41;40.67;101721.26;;;;-47
2020/01/12 05:24:50;;;;;;;3.32;3.02;;;;;;;18.48;40.66;101721.30;;;;-47
2020/01/12 05:27:50;;;;;;;3.12;2.82;;;;;;;18.51;40.69;101714.98;;;;-47
2020/01/12 05:30:50;;;;;;;3.14;2.87;;;;;;;18.55;40.70;101717.42;;;;-47
2020/01/12 05:33:50;;;;;;;3.21;2.91;;;;;;;18.58;40.70;101719.03;;;;-47
2020/01/12 05:36:50;;;;;;;2.91;2.71;;;;;;;18.60;40.72;101720.61;;;;-47
2020/01/12 05:39:50;;;;;;;3.13;2.83;;;;;;;18.63;40.68;101720.48;;;;-47
2020/01/12 05:42:50;;;;;;;3.08;2.78;;;;;;;18.65;40.68;101728.04;;;;-47
2020/01/12 05:45:50;;;;;;;2.99;2.71;;;;;;;18.67;40.66;101725.68;;;;-47
2020/01/12 05:48:50;;;;;;;3.00;2.72;;;;;;;18.68;40.68;101733.03;;;;-47
2020/01/12 05:51:50;;;;;;;2.99;2.75;;;;;;;18.69;40.64;101729.16;;;;-56
2020/01/12 05:54:50;;;;;;;3.00;2.73;;;;;;;18.71;40.61;101728.55;;;;-55
2020/01/12 05:57:50;;;;;;;3.10;2.80;;;;;;;18.71;40.57;101725.39;;;;-55
2020/01/12 06:00:50;;;;;;;3.22;2.92;;;;;;;18.72;40.55;101733.72;;;;-55
2020/01/12 06:03:50;;;;;;;2.94;2.74;;;;;;;18.73;40.53;101734.94;;;;-47
2020/01/12 06:06:50;;;;;;;3.18;2.88;;;;;;;18.73;40.49;101733.56;;;;-47
2020/01/12 06:09:50;;;;;;;2.91;2.71;;;;;;;18.74;40.50;101737.69;;;;-47
2020/01/12 06:12:50;;;;;;;3.20;2.89;;;;;;;18.73;40.53;101736.62;;;;-47
2020/01/12 06:15:50;;;;;;;2.88;2.64;;;;;;;18.73;40.46;101734.39;;;;-48
2020/01/12 06:18:50;;;;;;;2.89;2.69;;;;;;;18.72;40.45;101732.32;;;;-47
2020/01/12 06:21:50;;;;;;;3.09;2.79;;;;;;;18.73;40.51;101731.50;;;;-47
2020/01/12 06:24:50;;;;;;;3.18;2.90;;;;;;;18.74;40.32;101733.50;;;;-47
2020/01/12 06:27:50;;;;;;;3.01;2.75;;;;;;;18.71;40.40;101728.13;;;;-47
2020/01/12 06:30:50;;;;;;;2.80;2.59;;;;;;;18.72;40.31;101720.81;;;;-47
2020/01/12 06:33:50;;;;;;;3.11;2.85;;;;;;;18.71;40.27;101720.77;;;;-47
2020/01/12 06:36:50;;;;;;;3.13;2.83;;;;;;;18.70;40.45;101723.47;;;;-47
2020/01/12 06:39:50;;;;;;;2.70;2.50;;;;;;;18.69;40.50;101722.91;;;;-47
2020/01/12 06:42:50;;;;;;;3.09;2.79;;;;;;;18.69;40.41;101715.53;;;;-47
2020/01/12 06:45:50;;;;;;;2.81;2.58;;;;;;;18.68;40.49;101712.53;;;;-47
2020/01/12 06:48:50;;;;;;;2.93;2.66;;;;;;;18.68;40.35;101713.36;;;;-46
2020/01/12 06:51:50;;;;;;;3.09;2.81;;;;;;;18.67;40.27;101713.74;;;;-47
2020/01/12 06:54:50;;;;;;;3.11;2.81;;;;;;;18.67;40.31;101712.89;;;;-48
2020/01/12 06:57:50;;;;;;;2.95;2.72;;;;;;;18.67;40.39;101718.41;;;;-47
2020/01/12 07:01:01;;;;;;;3.19;2.89;;;;;;;18.66;40.33;101716.07;;;;-47
2020/01/12 07:03:50;;;;;;;3.11;2.81;;;;;;;18.66;40.43;101712.88;;;;-47
2020/01/12 07:06:50;;;;;;;3.07;2.77;;;;;;;18.65;40.43;101711.64;;;;-47
2020/01/12 07:09:50;;;;;;;3.06;2.79;;;;;;;18.65;40.26;101712.41;;;;-47
2020/01/12 07:12:50;;;;;;;2.99;2.77;;;;;;;18.64;40.42;101716.61;;;;-47
2020/01/12 07:15:50;;;;;;;3.27;2.97;;;;;;;18.64;40.42;101717.03;;;;-46
2020/01/12 07:18:50;;;;;;;3.21;2.91;;;;;;;18.64;40.32;101719.88;;;;-47
2020/01/12 07:21:50;;;;;;;2.95;2.65;;;;;;;18.64;40.24;101717.09;;;;-47
2020/01/12 07:24:50;;;;;;;3.10;2.82;;;;;;;18.63;40.37;101715.31;;;;-47
2020/01/12 07:27:51;;;;;;;2.97;2.67;;;;;;;18.64;40.33;101717.28;;;;-47
2020/01/12 07:30:50;;;;;;;3.10;2.81;;;;;;;18.64;40.38;101708.89;;;;-47
2020/01/12 07:33:50;;;;;;;3.18;2.88;;;;;;;18.64;40.37;101710.17;;;;-47
2020/01/12 07:36:50;;;;;;;3.26;2.96;;;;;;;18.64;40.36;101713.09;;;;-47
2020/01/12 07:39:50;;;;;;;3.09;2.79;;;;;;;18.64;40.37;101710.34;;;;-47
2020/01/12 07:42:50;;;;;;;3.03;2.73;;;;;;;18.64;40.42;101708.02;;;;-47
2020/01/12 07:45:50;;;;;;;3.33;3.03;;;;;;;18.65;40.32;101706.73;;;;-47
2020/01/12 07:48:50;;;;;;;3.11;2.81;;;;;;;18.65;40.39;101706.89;;;;-46
2020/01/12 07:51:50;;;;;;;2.87;2.66;;;;;;;18.65;40.40;101706.08;;;;-48
2020/01/12 07:54:50;;;;;;;2.81;2.61;;;;;;;18.65;40.44;101705.07;;;;-48
2020/01/12 07:57:50;;;;;;;3.00;2.77;;;;;;;18.67;40.41;101713.08;;;;-48
2020/01/12 08:00:50;;;;;;;3.14;2.84;;;;;;;18.67;40.41;101711.28;;;;-48
2020/01/12 08:03:50;;;;;;;2.79;2.59;;;;;;;18.68;40.32;101716.02;;;;-48
2020/01/12 08:06:50;;;;;;;3.07;2.77;;;;;;;18.68;40.26;101716.38;;;;-48
2020/01/12 08:09:50;;;;;;;3.03;2.71;;;;;;;18.68;40.35;101718.39;;;;-48
2020/01/12 08:12:50;;;;;;;2.95;2.70;;;;;;;18.69;40.32;101717.43;;;;-48
2020/01/12 08:15:50;;;;;;;2.65;2.45;;;;;;;18.68;40.29;101723.02;;;;-48
2020/01/12 08:18:50;;;;;;;2.99;2.69;;;;;;;18.69;40.22;101723.95;;;;-48
2020/01/12 08:21:50;;;;;;;2.90;2.70;;;;;;;18.68;40.37;101725.52;;;;-48
2020/01/12 08:24:50;;;;;;;3.02;2.72;;;;;;;18.69;40.19;101727.32;;;;-48
2020/01/12 08:27:50;;;;;;;3.23;2.93;;;;;;;18.69;40.33;101729.83;;;;-49
2020/01/12 08:30:50;;;;;;;2.91;2.62;;;;;;;18.70;40.29;101734.56;;;;-48
2020/01/12 08:33:50;;;;;;;2.89;2.69;;;;;;;18.70;40.41;101729.55;;;;-48
2020/01/12 08:36:50;;;;;;;2.79;2.59;;;;;;;18.70;40.27;101733.73;;;;-48
2020/01/12 08:39:50;;;;;;;2.89;2.67;;;;;;;18.69;40.38;101727.41;;;;-48
2020/01/12 08:42:50;;;;;;;2.65;2.45;;;;;;;18.69;40.37;101727.32;;;;-48
2020/01/12 08:45:50;;;;;;;2.80;2.60;;;;;;;18.70;40.12;101732.06;;;;-48
2020/01/12 08:48:50;;;;;;;3.07;2.77;;;;;;;18.69;40.29;101731.16;;;;-48
2020/01/12 08:51:50;;;;;;;3.23;2.74;;;;;;;18.70;40.07;101733.39;;;;-48
2020/01/12 08:54:50;;;;;;;2.81;2.61;;;;;;;18.69;40.27;101729.59;;;;-48
2020/01/12 08:57:50;;;;;;;2.80;2.60;;;;;;;18.69;40.15;101737.79;;;;-48
2020/01/12 09:00:50;;;;;;;3.03;2.73;;;;;;;18.68;40.22;101732.88;;;;-48
2020/01/12 09:03:50;;;;;;;2.83;2.63;;;;;;;18.68;40.24;101733.89;;;;-48
2020/01/12 09:06:50;;;;;;;2.90;2.61;;;;;;;18.68;40.17;101737.06;;;;-48
2020/01/12 09:09:50;;;;;;;2.71;2.51;;;;;;;18.68;40.27;101736.94;;;;-48
2020/01/12 09:12:50;;;;;;;2.79;2.59;;;;;;;18.68;40.24;101745.10;;;;-49
2020/01/12 09:15:50;;;;;;;2.99;2.69;;;;;;;18.69;40.11;101739.63;;;;-48
2020/01/12 09:18:50;;;;;;;3.03;2.76;;;;;;;18.68;40.21;101737.95;;;;-48
2020/01/12 09:21:50;;;;;;;2.85;2.63;;;;;;;18.68;40.02;101740.40;;;;-48
2020/01/12 09:24:50;;;;;;;2.85;2.57;;;;;;;18.68;40.12;101744.81;;;;-48
2020/01/12 09:27:50;;;;;;;2.90;2.70;;;;;;;18.67;40.09;101752.90;;;;-48
2020/01/12 09:30:50;;;;;;;3.14;2.84;;;;;;;18.67;40.17;101753.06;;;;-48
2020/01/12 09:33:50;;;;;;;2.66;2.46;;;;;;;18.68;40.12;101758.47;;;;-48
2020/01/12 09:36:50;;;;;;;3.17;2.87;;;;;;;18.67;40.32;101755.97;;;;-48
2020/01/12 09:39:50;;;;;;;4.35;2.86;;;;;;;18.70;40.92;101751.32;;;;-48
2020/01/12 09:42:50;;;;;;;3.71;3.03;;;;;;;18.72;41.11;101756.13;;;;-46
2020/01/12 09:45:50;;;;;;;3.11;2.81;;;;;;;18.73;41.14;101751.19;;;;-46
2020/01/12 09:48:50;;;;;;;3.41;2.79;;;;;;;18.76;41.24;101759.27;;;;-49
2020/01/12 09:51:50;;;;;;;3.73;2.60;;;;;;;18.79;41.26;101761.95;;;;-48
2020/01/12 09:54:50;;;;;;;3.58;2.51;;;;;;;18.82;41.69;101764.86;;;;-48
2020/01/12 09:57:50;;;;;;;2.77;2.49;;;;;;;18.87;41.75;101768.33;;;;-51
2020/01/12 10:00:50;;;;;;;3.93;2.73;;;;;;;18.90;41.23;101765.47;;;;-52
2020/01/12 10:03:50;;;;;;;3.25;2.73;;;;;;;18.93;40.99;101763.66;;;;-52
2020/01/12 10:07:03;;;;;;;3.04;2.74;;;;;;;18.96;40.85;101751.70;;;;-52
2020/01/12 10:09:50;;;;;;;4.23;2.81;;;;;;;19.00;41.06;101749.30;;;;-49
2020/01/12 10:12:50;;;;;;;2.93;2.63;;;;;;;19.04;41.14;101741.75;;;;-50
2020/01/12 10:15:50;;;;;;;2.91;2.66;;;;;;;19.08;41.11;101737.26;;;;-50
2020/01/12 10:18:50;;;;;;;3.24;2.77;;;;;;;19.12;40.70;101736.92;;;;-49
2020/01/12 10:21:50;;;;;;;6.12;5.06;;;;;;;18.90;38.43;101732.16;;;;-49
2020/01/12 10:24:50;;;;;;;6.10;5.01;;;;;;;18.84;38.34;101728.34;;;;-49
2020/01/12 10:27:50;;;;;;;5.11;4.61;;;;;;;18.91;38.56;101724.91;;;;-49
2020/01/12 10:30:50;;;;;;;5.27;4.09;;;;;;;18.97;39.20;101719.13;;;;-51
2020/01/12 10:33:50;;;;;;;3.71;3.41;;;;;;;19.00;39.34;101722.67;;;;-51
2020/01/12 10:36:50;;;;;;;4.05;3.24;;;;;;;19.03;39.46;101708.64;;;;-51
2020/01/12 10:39:50;;;;;;;3.72;3.42;;;;;;;19.04;39.57;101706.98;;;;-50
2020/01/12 10:42:50;;;;;;;4.11;3.31;;;;;;;19.06;39.64;101694.16;;;;-52
2020/01/12 10:45:50;;;;;;;4.43;3.18;;;;;;;19.07;39.71;101694.78;;;;-51
2020/01/12 10:48:50;;;;;;;3.23;2.95;;;;;;;19.09;39.73;101687.21;;;;-50
2020/01/12 10:51:50;;;;;;;3.94;3.11;;;;;;;19.10;39.73;101681.64;;;;-52
2020/01/12 10:54:50;;;;;;;3.41;3.06;;;;;;;19.11;39.68;101681.54;;;;-50
2020/01/12 10:57:50;;;;;;;3.49;3.19;;;;;;;19.12;39.70;101680.49;;;;-51
2020/01/12 11:00:50;;;;;;;3.35;2.92;;;;;;;19.12;39.76;101686.23;;;;-50
2020/01/12 11:03:50;;;;;;;3.53;3.12;;;;;;;19.12;39.68;101682.00;;;;-51
2020/01/12 11:06:50;;;;;;;3.50;2.97;;;;;;;19.12;39.73;101678.20;;;;-51
2020/01/12 11:09:50;;;;;;;4.13;3.18;;;;;;;19.14;39.83;101678.31;;;;-50
2020/01/12 11:12:50;;;;;;;3.15;2.85;;;;;;;19.14;40.06;101677.02;;;;-49
2020/01/12 11:15:50;;;;;;;3.49;3.09;;;;;;;19.16;40.04;101680.50;;;;-49
2020/01/12 11:18:50;;;;;;;6.10;3.30;;;;;;;19.17;40.13;101683.30;;;;-49
2020/01/12 11:21:50;;;;;;;5.82;3.30;;;;;;;19.17;39.64;101682.75;;;;-48
2020/01/12 11:24:50;;;;;;;4.97;3.31;;;;;;;19.16;39.90;101676.66;;;;-50
2020/01/12 11:27:50;;;;;;;8.00;3.36;;;;;;;19.17;39.85;101673.55;;;;-47
2020/01/12 11:30:50;;;;;;;4.57;3.51;;;;;;;19.14;39.81;101668.38;;;;-51
2020/01/12 11:33:50;;;;;;;8.31;3.07;;;;;;;19.15;39.83;101668.00;;;;-49
2020/01/12 11:36:50;;;;;;;6.38;3.29;;;;;;;19.15;40.10;101662.58;;;;-48
2020/01/12 11:39:50;;;;;;;14.58;3.74;;;;;;;19.16;39.98;101653.09;;;;-48
2020/01/12 11:42:50;;;;;;;7.00;3.45;;;;;;;19.17;39.95;101654.17;;;;-48
2020/01/12 11:45:50;;;;;;;5.55;3.37;;;;;;;19.17;40.07;101652.83;;;;-48
2020/01/12 11:48:50;;;;;;;3.84;3.01;;;;;;;19.17;40.10;101652.33;;;;-48
2020/01/12 11:51:50;;;;;;;6.25;3.35;;;;;;;19.17;40.10;101644.45;;;;-47
2020/01/12 11:54:50;;;;;;;7.48;3.43;;;;;;;19.17;40.13;101649.59;;;;-47
2020/01/12 11:57:50;;;;;;;4.47;3.24;;;;;;;19.16;40.17;101650.19;;;;-47
2020/01/12 12:00:50;;;;;;;5.49;3.38;;;;;;;19.16;40.19;101644.55;;;;-47
2020/01/12 12:03:50;;;;;;;3.83;2.91;;;;;;;19.15;40.19;101635.34;;;;-46
2020/01/12 12:06:50;;;;;;;4.10;3.18;;;;;;;19.14;40.24;101635.83;;;;-49
2020/01/12 12:09:50;;;;;;;4.16;3.09;;;;;;;19.14;40.21;101629.52;;;;-48
2020/01/12 12:12:50;;;;;;;4.72;3.20;;;;;;;19.16;40.34;101632.78;;;;-48
2020/01/12 12:15:50;;;;;;;6.13;3.21;;;;;;;19.14;40.20;101633.77;;;;-48
2020/01/12 12:18:50;;;;;;;3.28;2.91;;;;;;;19.12;40.12;101633.32;;;;-48
2020/01/12 12:21:50;;;;;;;3.34;2.94;;;;;;;19.11;40.07;101625.55;;;;-48
2020/01/12 12:24:50;;;;;;;3.89;3.01;;;;;;;19.08;40.04;101624.08;;;;-48
2020/01/12 12:27:50;;;;;;;5.45;3.08;;;;;;;19.07;40.02;101628.20;;;;-49
2020/01/12 12:30:50;;;;;;;3.83;2.93;;;;;;;19.05;40.03;101627.41;;;;-48
2020/01/12 12:33:50;;;;;;;3.39;3.09;;;;;;;19.04;39.96;101624.99;;;;-48
2020/01/12 12:36:50;;;;;;;3.40;2.91;;;;;;;19.02;39.95;101628.71;;;;-48
2020/01/12 12:39:50;;;;;;;4.31;2.80;;;;;;;19.01;39.98;101628.74;;;;-49
2020/01/12 12:42:50;;;;;;;3.21;2.88;;;;;;;19.00;39.91;101629.41;;;;-48
2020/01/12 12:45:50;;;;;;;3.78;2.71;;;;;;;18.98;39.94;101637.64;;;;-48
2020/01/12 12:48:50;;;;;;;5.63;2.80;;;;;;;18.96;39.94;101634.69;;;;-49
2020/01/12 12:51:50;;;;;;;3.16;2.82;;;;;;;18.95;39.94;101629.97;;;;-48
2020/01/12 12:54:50;;;;;;;3.28;2.94;;;;;;;18.94;39.91;101627.84;;;;-48
2020/01/12 12:57:50;;;;;;;2.98;2.66;;;;;;;18.92;39.88;101629.99;;;;-48
2020/01/12 13:00:50;;;;;;;3.85;2.81;;;;;;;18.91;39.91;101627.53;;;;-48
2020/01/12 13:03:50;;;;;;;3.04;2.77;;;;;;;18.90;39.89;101626.34;;;;-48
2020/01/12 13:06:50;;;;;;;3.33;2.70;;;;;;;18.89;39.85;101625.89;;;;-48
2020/01/12 13:09:50;;;;;;;3.37;2.69;;;;;;;18.87;39.86;101621.30;;;;-48
2020/01/12 13:12:50;;;;;;;3.19;2.81;;;;;;;18.85;39.88;101628.92;;;;-48
2020/01/12 13:15:50;;;;;;;3.51;2.75;;;;;;;18.84;39.84;101621.38;;;;-48
2020/01/12 13:18:50;;;;;;;3.61;2.70;;;;;;;18.83;39.91;101617.97;;;;-48
2020/01/12 13:21:50;;;;;;;3.58;2.72;;;;;;;18.82;39.89;101613.05;;;;-48
2020/01/12 13:24:50;;;;;;;2.97;2.74;;;;;;;18.81;39.88;101604.00;;;;-48
2020/01/12 13:27:50;;;;;;;3.37;2.71;;;;;;;18.80;39.86;101605.78;;;;-48
2020/01/12 13:30:50;;;;;;;2.97;2.62;;;;;;;18.79;39.85;101605.14;;;;-48
2020/01/12 13:33:50;;;;;;;4.76;2.91;;;;;;;18.77;39.85;101604.91;;;;-48
2020/01/12 13:36:50;;;;;;;3.23;2.66;;;;;;;18.79;40.06;101597.01;;;;-50
2020/01/12 13:39:50;;;;;;;4.11;2.75;;;;;;;18.80;40.16;101595.33;;;;-50
2020/01/12 13:42:50;;;;;;;4.14;2.72;;;;;;;18.82;40.25;101589.34;;;;-49
2020/01/12 13:45:50;;;;;;;3.00;2.56;;;;;;;18.88;40.39;101592.02;;;;-49
2020/01/12 13:49:02;;;;;;;3.20;2.69;;;;;;;18.90;40.37;101586.02;;;;-48
2020/01/12 13:51:50;;;;;;;3.68;2.61;;;;;;;18.95;40.43;101582.31;;;;-48
2020/01/12 13:54:50;;;;;;;2.93;2.50;;;;;;;19.01;40.47;101591.47;;;;-47
2020/01/12 13:57:50;;;;;;;2.90;2.61;;;;;;;19.06;40.49;101592.47;;;;-48
2020/01/12 14:00:50;;;;;;;2.98;2.68;;;;;;;19.11;40.54;101589.61;;;;-49
2020/01/12 14:03:50;;;;;;;2.71;2.50;;;;;;;19.15;40.57;101592.97;;;;-48
2020/01/12 14:06:50;;;;;;;2.98;2.52;;;;;;;19.19;40.58;101593.02;;;;-50
2020/01/12 14:09:50;;;;;;;2.71;2.33;;;;;;;19.24;40.56;101592.89;;;;-48
2020/01/12 14:12:50;;;;;;;3.59;2.57;;;;;;;19.29;40.79;101595.95;;;;-49
2020/01/12 14:15:50;;;;;;;5.12;2.50;;;;;;;19.32;40.32;101587.36;;;;-49
2020/01/12 14:18:50;;;;;;;3.67;2.59;;;;;;;19.32;40.30;101579.77;;;;-49
2020/01/12 14:21:50;;;;;;;3.70;2.38;;;;;;;19.34;40.30;101582.64;;;;-49
2020/01/12 14:24:50;;;;;;;3.82;2.35;;;;;;;19.35;40.27;101578.84;;;;-49
2020/01/12 14:27:50;;;;;;;2.45;2.25;;;;;;;19.37;40.27;101581.76;;;;-49
2020/01/12 14:30:50;;;;;;;4.02;2.30;;;;;;;19.39;40.24;101575.75;;;;-49
2020/01/12 14:33:50;;;;;;;4.24;2.37;;;;;;;19.43;40.24;101578.97;;;;-49
2020/01/12 14:36:50;;;;;;;2.49;2.28;;;;;;;19.44;40.19;101575.45;;;;-49
2020/01/12 14:39:50;;;;;;;2.60;2.40;;;;;;;19.46;40.21;101572.05;;;;-50
2020/01/12 14:42:50;;;;;;;7.47;2.43;;;;;;;19.48;40.20;101572.69;;;;-49
2020/01/12 14:45:50;;;;;;;3.11;2.20;;;;;;;19.50;40.16;101573.88;;;;-49
2020/01/12 14:48:50;;;;;;;2.41;2.15;;;;;;;19.51;40.16;101568.95;;;;-49
2020/01/12 14:51:50;;;;;;;2.66;2.30;;;;;;;19.52;40.16;101563.73;;;;-49
2020/01/12 14:54:50;;;;;;;2.37;2.17;;;;;;;19.55;40.12;101567.98;;;;-49
2020/01/12 14:57:50;;;;;;;2.63;2.38;;;;;;;19.55;40.15;101569.99;;;;-49
2020/01/12 15:00:50;;;;;;;2.43;2.21;;;;;;;19.57;40.13;101562.08;;;;-50
2020/01/12 15:03:50;;;;;;;3.73;2.41;;;;;;;19.58;39.71;101561.08;;;;-50
2020/01/12 15:06:50;;;;;;;3.41;2.34;;;;;;;19.58;39.71;101557.88;;;;-50
2020/01/12 15:09:59;;;;;;;2.85;2.09;;;;;;;19.59;39.89;101559.02;;;;-49
2020/01/12 15:12:50;;;;;;;2.73;2.37;;;;;;;19.60;39.93;101552.88;;;;-49
2020/01/12 15:15:50;;;;;;;2.76;2.19;;;;;;;19.60;40.00;101547.80;;;;-49
2020/01/12 15:18:50;;;;;;;2.41;2.21;;;;;;;19.61;39.96;101541.11;;;;-49
2020/01/12 15:21:50;;;;;;;2.30;2.10;;;;;;;19.62;39.96;101540.50;;;;-49
2020/01/12 15:24:51;;;;;;;2.54;2.10;;;;;;;19.62;39.95;101550.98;;;;-49
2020/01/12 15:27:50;;;;;;;2.55;2.35;;;;;;;19.63;39.93;101560.27;;;;-49
2020/01/12 15:30:50;;;;;;;2.47;2.23;;;;;;;19.63;39.93;101552.63;;;;-49
2020/01/12 15:33:50;;;;;;;2.50;2.05;;;;;;;19.62;39.95;101550.50;;;;-49
2020/01/12 15:36:50;;;;;;;2.67;2.21;;;;;;;19.65;39.86;101559.84;;;;-49
2020/01/12 15:39:50;;;;;;;2.45;2.14;;;;;;;19.68;40.28;101559.47;;;;-46
2020/01/12 15:42:50;;;;;;;2.95;2.19;;;;;;;19.69;40.43;101559.75;;;;-48
2020/01/12 15:45:50;;;;;;;2.13;1.93;;;;;;;19.72;40.60;101562.45;;;;-48
2020/01/12 15:48:50;;;;;;;2.60;2.11;;;;;;;19.74;40.54;101561.80;;;;-49
2020/01/12 15:51:50;;;;;;;2.55;2.10;;;;;;;19.77;40.71;101561.03;;;;-48
2020/01/12 15:54:50;;;;;;;2.23;2.03;;;;;;;19.81;40.58;101565.80;;;;-48
2020/01/12 15:57:50;;;;;;;2.91;2.20;;;;;;;19.82;40.71;101563.11;;;;-49
2020/01/12 16:00:50;;;;;;;2.38;1.95;;;;;;;19.84;40.73;101570.52;;;;-49
2020/01/12 16:03:50;;;;;;;3.76;2.19;;;;;;;19.88;40.82;101569.52;;;;-49
2020/01/12 16:06:50;;;;;;;2.49;2.09;;;;;;;19.91;40.90;101575.30;;;;-47
2020/01/12 16:09:50;;;;;;;2.57;2.16;;;;;;;19.94;40.86;101571.52;;;;-51
2020/01/12 16:12:50;;;;;;;3.02;1.89;;;;;;;19.97;40.70;101575.83;;;;-50
2020/01/12 16:15:50;;;;;;;2.21;2.03;;;;;;;19.99;40.74;101576.89;;;;-51
2020/01/12 16:18:50;;;;;;;2.02;1.85;;;;;;;20.00;40.90;101580.30;;;;-51
2020/01/12 16:21:50;;;;;;;2.17;1.99;;;;;;;20.00;40.45;101580.97;;;;-50
2020/01/12 16:24:50;;;;;;;2.53;2.00;;;;;;;20.03;40.85;101579.31;;;;-48
2020/01/12 16:27:50;;;;;;;3.14;1.99;;;;;;;19.98;39.50;101586.42;;;;-48
2020/01/12 16:30:50;;;;;;;3.23;2.27;;;;;;;19.97;39.52;101591.20;;;;-49
2020/01/12 16:33:50;;;;;;;3.91;2.19;;;;;;;19.97;39.77;101584.83;;;;-50
2020/01/12 16:36:50;;;;;;;2.85;2.13;;;;;;;19.97;39.73;101586.02;;;;-47
2020/01/12 16:39:50;;;;;;;2.52;2.32;;;;;;;19.98;39.32;101591.12;;;;-50
2020/01/12 16:42:50;;;;;;;2.33;2.13;;;;;;;19.98;39.55;101593.86;;;;-50
2020/01/12 16:45:50;;;;;;;3.13;1.99;;;;;;;19.98;39.62;101596.91;;;;-50